sensor_id;sensor_type;location;lat;lon;timestamp;P1;durP1;ratioP1;P2;durP2;ratioP2
81310;SDS011;70779;52.506;5.492;2024-02-21T00:01:08;22.75;;;9.98;;
81310;SDS011;70779;52.506;5.492;2024-02-21T00:03:34;18.27;;;9.18;;
81310;SDS011;70779;52.506;5.492;2024-02-21T00:06:00;17.55;;;10.18;;
81310;SDS011;70779;52.506;5.492;2024-02-21T00:08:26;19.15;;;10.18;;
81310;SDS011;70779;52.506;5.492;2024-02-21T00:10:52;14.52;;;9.25;;
81310;SDS011;70779;52.506;5.492;2024-02-21T00:13:18;18.88;;;11.18;;
81310;SDS011;70779;52.506;5.492;2024-02-21T00:15:44;21.73;;;10.23;;
81310;SDS011;70779;52.506;5.492;2024-02-21T00:18:10;21.30;;;11.20;;
81310;SDS011;70779;52.506;5.492;2024-02-21T00:20:36;22.38;;;9.95;;
81310;SDS011;70779;52.506;5.492;2024-02-21T00:23:02;19.58;;;9.45;;
81310;SDS011;70779;52.506;5.492;2024-02-21T00:25:29;17.15;;;9.65;;
81310;SDS011;70779;52.506;5.492;2024-02-21T00:27:55;21.25;;;9.98;;
81310;SDS011;70779;52.506;5.492;2024-02-21T00:30:21;20.67;;;9.88;;
81310;SDS011;70779;52.506;5.492;2024-02-21T00:32:47;19.83;;;10.98;;
81310;SDS011;70779;52.506;5.492;2024-02-21T00:35:14;22.25;;;11.60;;
81310;SDS011;70779;52.506;5.492;2024-02-21T00:37:40;22.27;;;11.50;;
81310;SDS011;70779;52.506;5.492;2024-02-21T00:40:06;18.70;;;10.50;;
81310;SDS011;70779;52.506;5.492;2024-02-21T00:42:32;16.88;;;9.40;;
81310;SDS011;70779;52.506;5.492;2024-02-21T00:44:59;21.45;;;11.15;;
81310;SDS011;70779;52.506;5.492;2024-02-21T00:47:25;21.85;;;11.02;;
81310;SDS011;70779;52.506;5.492;2024-02-21T00:49:51;17.75;;;10.48;;
81310;SDS011;70779;52.506;5.492;2024-02-21T00:52:17;18.20;;;10.80;;
81310;SDS011;70779;52.506;5.492;2024-02-21T00:54:43;17.77;;;9.60;;
81310;SDS011;70779;52.506;5.492;2024-02-21T00:57:09;22.92;;;10.30;;
81310;SDS011;70779;52.506;5.492;2024-02-21T00:59:36;20.73;;;8.52;;
81310;SDS011;70779;52.506;5.492;2024-02-21T01:02:02;15.82;;;7.95;;
81310;SDS011;70779;52.506;5.492;2024-02-21T01:04:29;17.02;;;7.65;;
81310;SDS011;70779;52.506;5.492;2024-02-21T01:06:55;15.30;;;7.03;;
81310;SDS011;70779;52.506;5.492;2024-02-21T01:09:21;16.80;;;8.02;;
81310;SDS011;70779;52.506;5.492;2024-02-21T01:11:47;15.23;;;8.18;;
81310;SDS011;70779;52.506;5.492;2024-02-21T01:14:13;15.32;;;7.97;;
81310;SDS011;70779;52.506;5.492;2024-02-21T01:16:39;15.77;;;6.50;;
81310;SDS011;70779;52.506;5.492;2024-02-21T01:19:05;18.77;;;7.03;;
81310;SDS011;70779;52.506;5.492;2024-02-21T01:21:31;17.58;;;7.63;;
81310;SDS011;70779;52.506;5.492;2024-02-21T01:23:57;14.23;;;7.05;;
81310;SDS011;70779;52.506;5.492;2024-02-21T01:26:23;14.85;;;6.95;;
81310;SDS011;70779;52.506;5.492;2024-02-21T01:28:49;17.42;;;7.68;;
81310;SDS011;70779;52.506;5.492;2024-02-21T01:31:16;19.13;;;7.97;;
81310;SDS011;70779;52.506;5.492;2024-02-21T01:33:42;16.77;;;8.10;;
81310;SDS011;70779;52.506;5.492;2024-02-21T01:36:08;17.85;;;7.15;;
81310;SDS011;70779;52.506;5.492;2024-02-21T01:38:34;15.15;;;7.22;;
81310;SDS011;70779;52.506;5.492;2024-02-21T01:41:00;14.85;;;6.13;;
81310;SDS011;70779;52.506;5.492;2024-02-21T01:43:27;17.60;;;7.13;;
81310;SDS011;70779;52.506;5.492;2024-02-21T01:45:53;18.80;;;6.13;;
81310;SDS011;70779;52.506;5.492;2024-02-21T01:48:21;12.80;;;5.47;;
81310;SDS011;70779;52.506;5.492;2024-02-21T01:50:49;10.75;;;4.57;;
81310;SDS011;70779;52.506;5.492;2024-02-21T01:53:16;11.23;;;4.95;;
81310;SDS011;70779;52.506;5.492;2024-02-21T01:55:45;12.27;;;5.40;;
81310;SDS011;70779;52.506;5.492;2024-02-21T01:58:14;17.35;;;5.35;;
81310;SDS011;70779;52.506;5.492;2024-02-21T02:00:45;14.82;;;5.53;;
81310;SDS011;70779;52.506;5.492;2024-02-21T02:03:12;15.68;;;5.53;;
81310;SDS011;70779;52.506;5.492;2024-02-21T02:05:45;12.82;;;5.22;;
81310;SDS011;70779;52.506;5.492;2024-02-21T02:08:13;11.90;;;4.68;;
81310;SDS011;70779;52.506;5.492;2024-02-21T02:10:40;13.98;;;5.25;;
81310;SDS011;70779;52.506;5.492;2024-02-21T02:13:07;15.52;;;5.97;;
81310;SDS011;70779;52.506;5.492;2024-02-21T02:15:46;13.07;;;5.70;;
81310;SDS011;70779;52.506;5.492;2024-02-21T02:18:13;13.38;;;5.35;;
81310;SDS011;70779;52.506;5.492;2024-02-21T02:20:40;17.60;;;6.63;;
81310;SDS011;70779;52.506;5.492;2024-02-21T02:23:10;13.23;;;5.88;;
81310;SDS011;70779;52.506;5.492;2024-02-21T02:25:39;19.08;;;6.82;;
81310;SDS011;70779;52.506;5.492;2024-02-21T02:28:06;11.45;;;6.25;;
81310;SDS011;70779;52.506;5.492;2024-02-21T02:30:33;18.50;;;6.75;;
81310;SDS011;70779;52.506;5.492;2024-02-21T02:33:02;13.48;;;6.00;;
81310;SDS011;70779;52.506;5.492;2024-02-21T02:35:29;21.20;;;6.95;;
81310;SDS011;70779;52.506;5.492;2024-02-21T02:37:55;17.70;;;5.35;;
81310;SDS011;70779;52.506;5.492;2024-02-21T02:40:21;18.70;;;5.50;;
81310;SDS011;70779;52.506;5.492;2024-02-21T02:42:48;13.48;;;5.53;;
81310;SDS011;70779;52.506;5.492;2024-02-21T02:45:15;11.38;;;4.70;;
81310;SDS011;70779;52.506;5.492;2024-02-21T02:47:41;12.20;;;4.38;;
81310;SDS011;70779;52.506;5.492;2024-02-21T02:50:08;12.32;;;5.70;;
81310;SDS011;70779;52.506;5.492;2024-02-21T02:52:34;14.50;;;5.07;;
81310;SDS011;70779;52.506;5.492;2024-02-21T02:55:00;10.90;;;3.85;;
81310;SDS011;70779;52.506;5.492;2024-02-21T02:57:27;15.52;;;4.20;;
81310;SDS011;70779;52.506;5.492;2024-02-21T02:59:53;14.38;;;3.15;;
81310;SDS011;70779;52.506;5.492;2024-02-21T03:02:19;15.88;;;4.03;;
81310;SDS011;70779;52.506;5.492;2024-02-21T03:04:45;14.55;;;4.43;;
81310;SDS011;70779;52.506;5.492;2024-02-21T03:07:11;12.82;;;3.55;;
81310;SDS011;70779;52.506;5.492;2024-02-21T03:09:40;11.48;;;2.83;;
81310;SDS011;70779;52.506;5.492;2024-02-21T03:12:08;13.35;;;2.65;;
81310;SDS011;70779;52.506;5.492;2024-02-21T03:14:34;12.65;;;2.63;;
81310;SDS011;70779;52.506;5.492;2024-02-21T03:17:01;12.13;;;2.85;;
81310;SDS011;70779;52.506;5.492;2024-02-21T03:19:28;9.50;;;2.45;;
81310;SDS011;70779;52.506;5.492;2024-02-21T03:21:54;12.90;;;3.00;;
81310;SDS011;70779;52.506;5.492;2024-02-21T03:24:20;9.38;;;3.30;;
81310;SDS011;70779;52.506;5.492;2024-02-21T03:26:47;12.48;;;2.95;;
81310;SDS011;70779;52.506;5.492;2024-02-21T03:29:15;11.80;;;3.58;;
81310;SDS011;70779;52.506;5.492;2024-02-21T03:31:42;13.35;;;3.38;;
81310;SDS011;70779;52.506;5.492;2024-02-21T03:34:10;9.73;;;2.53;;
81310;SDS011;70779;52.506;5.492;2024-02-21T03:36:36;12.60;;;3.53;;
81310;SDS011;70779;52.506;5.492;2024-02-21T03:39:02;7.75;;;2.45;;
81310;SDS011;70779;52.506;5.492;2024-02-21T03:41:29;13.55;;;3.10;;
81310;SDS011;70779;52.506;5.492;2024-02-21T03:43:55;10.65;;;3.08;;
81310;SDS011;70779;52.506;5.492;2024-02-21T03:46:21;10.45;;;2.20;;
81310;SDS011;70779;52.506;5.492;2024-02-21T03:48:47;12.85;;;3.25;;
81310;SDS011;70779;52.506;5.492;2024-02-21T03:51:13;13.38;;;2.65;;
81310;SDS011;70779;52.506;5.492;2024-02-21T03:53:40;12.00;;;2.63;;
81310;SDS011;70779;52.506;5.492;2024-02-21T03:56:06;13.13;;;2.50;;
81310;SDS011;70779;52.506;5.492;2024-02-21T03:58:33;11.45;;;2.55;;
81310;SDS011;70779;52.506;5.492;2024-02-21T04:01:02;12.27;;;2.67;;
81310;SDS011;70779;52.506;5.492;2024-02-21T04:03:29;12.40;;;3.17;;
81310;SDS011;70779;52.506;5.492;2024-02-21T04:05:56;12.77;;;3.45;;
81310;SDS011;70779;52.506;5.492;2024-02-21T04:08:22;16.63;;;3.58;;
81310;SDS011;70779;52.506;5.492;2024-02-21T04:10:49;9.55;;;3.95;;
81310;SDS011;70779;52.506;5.492;2024-02-21T04:13:15;13.70;;;3.38;;
81310;SDS011;70779;52.506;5.492;2024-02-21T04:15:41;18.80;;;3.88;;
81310;SDS011;70779;52.506;5.492;2024-02-21T04:18:07;13.48;;;4.65;;
81310;SDS011;70779;52.506;5.492;2024-02-21T04:20:34;9.70;;;3.80;;
81310;SDS011;70779;52.506;5.492;2024-02-21T04:23:00;19.13;;;5.32;;
81310;SDS011;70779;52.506;5.492;2024-02-21T04:25:27;16.15;;;4.50;;
81310;SDS011;70779;52.506;5.492;2024-02-21T04:27:53;12.95;;;3.53;;
81310;SDS011;70779;52.506;5.492;2024-02-21T04:30:19;16.67;;;3.25;;
81310;SDS011;70779;52.506;5.492;2024-02-21T04:32:45;8.35;;;2.40;;
81310;SDS011;70779;52.506;5.492;2024-02-21T04:35:11;13.65;;;2.65;;
81310;SDS011;70779;52.506;5.492;2024-02-21T04:37:37;12.30;;;2.97;;
81310;SDS011;70779;52.506;5.492;2024-02-21T04:40:03;10.40;;;2.70;;
81310;SDS011;70779;52.506;5.492;2024-02-21T04:42:30;8.52;;;2.08;;
81310;SDS011;70779;52.506;5.492;2024-02-21T04:44:56;11.82;;;2.65;;
81310;SDS011;70779;52.506;5.492;2024-02-21T04:47:22;11.55;;;2.35;;
81310;SDS011;70779;52.506;5.492;2024-02-21T04:49:52;9.63;;;2.50;;
81310;SDS011;70779;52.506;5.492;2024-02-21T04:52:18;12.10;;;2.70;;
81310;SDS011;70779;52.506;5.492;2024-02-21T04:54:44;16.50;;;3.22;;
81310;SDS011;70779;52.506;5.492;2024-02-21T04:57:10;9.05;;;2.50;;
81310;SDS011;70779;52.506;5.492;2024-02-21T04:59:36;10.00;;;2.63;;
81310;SDS011;70779;52.506;5.492;2024-02-21T05:02:02;13.63;;;2.25;;
81310;SDS011;70779;52.506;5.492;2024-02-21T05:04:29;8.55;;;2.72;;
81310;SDS011;70779;52.506;5.492;2024-02-21T05:06:55;13.60;;;2.17;;
81310;SDS011;70779;52.506;5.492;2024-02-21T05:09:21;8.23;;;2.67;;
81310;SDS011;70779;52.506;5.492;2024-02-21T05:11:47;9.93;;;2.50;;
81310;SDS011;70779;52.506;5.492;2024-02-21T05:14:13;12.23;;;3.08;;
81310;SDS011;70779;52.506;5.492;2024-02-21T05:16:39;10.75;;;2.20;;
81310;SDS011;70779;52.506;5.492;2024-02-21T05:19:05;8.15;;;2.20;;
81310;SDS011;70779;52.506;5.492;2024-02-21T05:21:31;11.68;;;3.47;;
81310;SDS011;70779;52.506;5.492;2024-02-21T05:23:58;8.15;;;2.90;;
81310;SDS011;70779;52.506;5.492;2024-02-21T05:26:25;11.02;;;2.85;;
81310;SDS011;70779;52.506;5.492;2024-02-21T05:28:52;9.25;;;2.58;;
81310;SDS011;70779;52.506;5.492;2024-02-21T05:31:19;10.98;;;2.70;;
81310;SDS011;70779;52.506;5.492;2024-02-21T05:33:45;13.90;;;2.90;;
81310;SDS011;70779;52.506;5.492;2024-02-21T05:36:11;8.43;;;2.38;;
81310;SDS011;70779;52.506;5.492;2024-02-21T05:38:38;9.63;;;2.92;;
81310;SDS011;70779;52.506;5.492;2024-02-21T05:41:04;9.93;;;2.60;;
81310;SDS011;70779;52.506;5.492;2024-02-21T05:43:30;7.22;;;2.22;;
81310;SDS011;70779;52.506;5.492;2024-02-21T05:45:57;7.80;;;2.63;;
81310;SDS011;70779;52.506;5.492;2024-02-21T05:48:23;10.70;;;2.40;;
81310;SDS011;70779;52.506;5.492;2024-02-21T05:50:49;7.07;;;2.45;;
81310;SDS011;70779;52.506;5.492;2024-02-21T05:53:16;10.65;;;2.42;;
81310;SDS011;70779;52.506;5.492;2024-02-21T05:55:42;12.55;;;2.50;;
81310;SDS011;70779;52.506;5.492;2024-02-21T05:58:08;10.05;;;3.33;;
81310;SDS011;70779;52.506;5.492;2024-02-21T06:00:39;10.77;;;3.17;;
81310;SDS011;70779;52.506;5.492;2024-02-21T06:03:05;12.00;;;3.10;;
81310;SDS011;70779;52.506;5.492;2024-02-21T06:05:36;7.30;;;2.15;;
81310;SDS011;70779;52.506;5.492;2024-02-21T06:10:30;9.68;;;3.90;;
81310;SDS011;70779;52.506;5.492;2024-02-21T06:12:56;9.93;;;3.17;;
81310;SDS011;70779;52.506;5.492;2024-02-21T06:15:22;9.32;;;3.22;;
81310;SDS011;70779;52.506;5.492;2024-02-21T06:17:48;9.95;;;4.32;;
81310;SDS011;70779;52.506;5.492;2024-02-21T06:20:16;11.50;;;3.92;;
81310;SDS011;70779;52.506;5.492;2024-02-21T06:22:42;11.68;;;4.80;;
81310;SDS011;70779;52.506;5.492;2024-02-21T06:25:08;13.63;;;4.43;;
81310;SDS011;70779;52.506;5.492;2024-02-21T06:27:34;17.27;;;4.40;;
81310;SDS011;70779;52.506;5.492;2024-02-21T06:30:00;10.07;;;3.95;;
81310;SDS011;70779;52.506;5.492;2024-02-21T06:32:26;10.68;;;4.70;;
81310;SDS011;70779;52.506;5.492;2024-02-21T06:34:52;8.80;;;4.00;;
81310;SDS011;70779;52.506;5.492;2024-02-21T06:37:18;10.55;;;4.93;;
81310;SDS011;70779;52.506;5.492;2024-02-21T06:39:45;11.55;;;4.80;;
81310;SDS011;70779;52.506;5.492;2024-02-21T06:42:11;8.90;;;4.82;;
81310;SDS011;70779;52.506;5.492;2024-02-21T06:44:37;12.48;;;4.63;;
81310;SDS011;70779;52.506;5.492;2024-02-21T06:47:06;10.20;;;4.25;;
81310;SDS011;70779;52.506;5.492;2024-02-21T06:49:33;10.18;;;5.13;;
81310;SDS011;70779;52.506;5.492;2024-02-21T06:51:59;11.50;;;4.72;;
81310;SDS011;70779;52.506;5.492;2024-02-21T06:54:26;9.60;;;5.05;;
81310;SDS011;70779;52.506;5.492;2024-02-21T06:56:52;9.48;;;5.63;;
81310;SDS011;70779;52.506;5.492;2024-02-21T06:59:18;11.55;;;6.10;;
81310;SDS011;70779;52.506;5.492;2024-02-21T07:01:45;8.52;;;5.30;;
81310;SDS011;70779;52.506;5.492;2024-02-21T07:04:12;7.93;;;4.53;;
81310;SDS011;70779;52.506;5.492;2024-02-21T07:06:38;7.22;;;4.18;;
81310;SDS011;70779;52.506;5.492;2024-02-21T07:09:04;8.48;;;5.10;;
81310;SDS011;70779;52.506;5.492;2024-02-21T07:11:30;10.52;;;6.07;;
81310;SDS011;70779;52.506;5.492;2024-02-21T07:13:56;12.05;;;4.85;;
81310;SDS011;70779;52.506;5.492;2024-02-21T07:16:23;10.48;;;5.45;;
81310;SDS011;70779;52.506;5.492;2024-02-21T07:18:49;8.77;;;4.68;;
81310;SDS011;70779;52.506;5.492;2024-02-21T07:21:15;7.30;;;4.90;;
81310;SDS011;70779;52.506;5.492;2024-02-21T07:23:41;12.00;;;4.88;;
81310;SDS011;70779;52.506;5.492;2024-02-21T07:26:10;10.00;;;5.90;;
81310;SDS011;70779;52.506;5.492;2024-02-21T07:28:36;9.05;;;4.75;;
81310;SDS011;70779;52.506;5.492;2024-02-21T07:31:02;8.75;;;4.72;;
81310;SDS011;70779;52.506;5.492;2024-02-21T07:33:28;7.13;;;4.25;;
81310;SDS011;70779;52.506;5.492;2024-02-21T07:35:56;8.70;;;3.80;;
81310;SDS011;70779;52.506;5.492;2024-02-21T07:38:22;9.45;;;4.60;;
81310;SDS011;70779;52.506;5.492;2024-02-21T07:40:48;8.35;;;5.32;;
81310;SDS011;70779;52.506;5.492;2024-02-21T07:43:14;8.35;;;4.60;;
81310;SDS011;70779;52.506;5.492;2024-02-21T07:45:40;11.00;;;5.47;;
81310;SDS011;70779;52.506;5.492;2024-02-21T07:48:07;6.95;;;4.70;;
81310;SDS011;70779;52.506;5.492;2024-02-21T07:50:33;9.10;;;5.30;;
81310;SDS011;70779;52.506;5.492;2024-02-21T07:52:59;11.18;;;5.03;;
81310;SDS011;70779;52.506;5.492;2024-02-21T07:55:25;9.25;;;4.90;;
81310;SDS011;70779;52.506;5.492;2024-02-21T07:57:51;7.55;;;4.28;;
81310;SDS011;70779;52.506;5.492;2024-02-21T08:00:18;10.00;;;4.63;;
81310;SDS011;70779;52.506;5.492;2024-02-21T08:02:48;8.82;;;4.88;;
81310;SDS011;70779;52.506;5.492;2024-02-21T08:05:14;9.95;;;5.05;;
81310;SDS011;70779;52.506;5.492;2024-02-21T08:07:40;10.13;;;5.05;;
81310;SDS011;70779;52.506;5.492;2024-02-21T08:10:07;7.22;;;4.70;;
81310;SDS011;70779;52.506;5.492;2024-02-21T08:12:36;7.30;;;4.35;;
81310;SDS011;70779;52.506;5.492;2024-02-21T08:15:03;9.00;;;4.80;;
81310;SDS011;70779;52.506;5.492;2024-02-21T08:17:29;13.70;;;4.72;;
81310;SDS011;70779;52.506;5.492;2024-02-21T08:19:56;12.73;;;5.15;;
81310;SDS011;70779;52.506;5.492;2024-02-21T08:22:22;9.57;;;5.53;;
81310;SDS011;70779;52.506;5.492;2024-02-21T08:24:48;9.85;;;5.45;;
81310;SDS011;70779;52.506;5.492;2024-02-21T08:27:14;8.43;;;4.97;;
81310;SDS011;70779;52.506;5.492;2024-02-21T08:29:40;6.93;;;4.30;;
81310;SDS011;70779;52.506;5.492;2024-02-21T08:32:06;8.02;;;5.43;;
81310;SDS011;70779;52.506;5.492;2024-02-21T08:34:32;10.35;;;5.43;;
81310;SDS011;70779;52.506;5.492;2024-02-21T08:36:59;10.02;;;4.95;;
81310;SDS011;70779;52.506;5.492;2024-02-21T08:39:26;10.43;;;5.28;;
81310;SDS011;70779;52.506;5.492;2024-02-21T08:41:54;9.93;;;4.15;;
81310;SDS011;70779;52.506;5.492;2024-02-21T08:44:22;8.77;;;5.45;;
81310;SDS011;70779;52.506;5.492;2024-02-21T08:46:53;8.18;;;4.32;;
81310;SDS011;70779;52.506;5.492;2024-02-21T08:49:19;7.10;;;4.65;;
81310;SDS011;70779;52.506;5.492;2024-02-21T08:51:45;7.90;;;5.00;;
81310;SDS011;70779;52.506;5.492;2024-02-21T08:54:12;12.88;;;5.53;;
81310;SDS011;70779;52.506;5.492;2024-02-21T08:56:38;10.05;;;5.43;;
81310;SDS011;70779;52.506;5.492;2024-02-21T08:59:04;7.07;;;4.63;;
81310;SDS011;70779;52.506;5.492;2024-02-21T09:01:30;9.88;;;5.10;;
81310;SDS011;70779;52.506;5.492;2024-02-21T09:03:56;8.75;;;5.00;;
81310;SDS011;70779;52.506;5.492;2024-02-21T09:06:22;9.07;;;5.50;;
81310;SDS011;70779;52.506;5.492;2024-02-21T09:08:48;8.07;;;4.65;;
81310;SDS011;70779;52.506;5.492;2024-02-21T09:11:15;10.48;;;5.00;;
81310;SDS011;70779;52.506;5.492;2024-02-21T09:13:41;10.75;;;5.55;;
81310;SDS011;70779;52.506;5.492;2024-02-21T09:16:07;7.93;;;5.00;;
81310;SDS011;70779;52.506;5.492;2024-02-21T09:18:34;10.40;;;5.78;;
81310;SDS011;70779;52.506;5.492;2024-02-21T09:21:00;8.70;;;5.50;;
81310;SDS011;70779;52.506;5.492;2024-02-21T09:23:26;8.95;;;6.00;;
81310;SDS011;70779;52.506;5.492;2024-02-21T09:25:52;7.75;;;4.55;;
81310;SDS011;70779;52.506;5.492;2024-02-21T09:28:20;12.18;;;6.40;;
81310;SDS011;70779;52.506;5.492;2024-02-21T09:30:46;8.90;;;5.57;;
81310;SDS011;70779;52.506;5.492;2024-02-21T09:33:13;11.55;;;6.32;;
81310;SDS011;70779;52.506;5.492;2024-02-21T09:35:39;10.45;;;5.80;;
81310;SDS011;70779;52.506;5.492;2024-02-21T09:38:05;9.25;;;5.85;;
81310;SDS011;70779;52.506;5.492;2024-02-21T09:40:32;10.27;;;5.60;;
81310;SDS011;70779;52.506;5.492;2024-02-21T09:43:04;10.80;;;5.70;;
81310;SDS011;70779;52.506;5.492;2024-02-21T09:45:32;9.43;;;5.60;;
81310;SDS011;70779;52.506;5.492;2024-02-21T09:48:06;10.63;;;6.10;;
81310;SDS011;70779;52.506;5.492;2024-02-21T09:50:46;9.48;;;5.60;;
81310;SDS011;70779;52.506;5.492;2024-02-21T09:53:14;10.80;;;5.18;;
81310;SDS011;70779;52.506;5.492;2024-02-21T09:55:41;8.82;;;5.85;;
81310;SDS011;70779;52.506;5.492;2024-02-21T09:58:09;10.63;;;5.72;;
81310;SDS011;70779;52.506;5.492;2024-02-21T10:00:35;10.35;;;5.45;;
81310;SDS011;70779;52.506;5.492;2024-02-21T10:03:02;11.35;;;6.50;;
81310;SDS011;70779;52.506;5.492;2024-02-21T10:05:34;10.75;;;6.95;;
81310;SDS011;70779;52.506;5.492;2024-02-21T10:08:01;11.40;;;7.10;;
81310;SDS011;70779;52.506;5.492;2024-02-21T10:10:28;18.15;;;9.52;;
81310;SDS011;70779;52.506;5.492;2024-02-21T10:12:55;12.30;;;7.80;;
81310;SDS011;70779;52.506;5.492;2024-02-21T10:15:24;16.08;;;10.13;;
81310;SDS011;70779;52.506;5.492;2024-02-21T10:17:57;12.05;;;7.35;;
81310;SDS011;70779;52.506;5.492;2024-02-21T10:20:25;15.73;;;8.90;;
81310;SDS011;70779;52.506;5.492;2024-02-21T10:23:01;11.73;;;6.40;;
81310;SDS011;70779;52.506;5.492;2024-02-21T10:25:35;15.10;;;7.63;;
81310;SDS011;70779;52.506;5.492;2024-02-21T10:28:07;11.60;;;7.35;;
81310;SDS011;70779;52.506;5.492;2024-02-21T10:30:33;14.82;;;8.48;;
81310;SDS011;70779;52.506;5.492;2024-02-21T10:32:59;15.18;;;7.35;;
81310;SDS011;70779;52.506;5.492;2024-02-21T10:35:26;10.88;;;6.78;;
81310;SDS011;70779;52.506;5.492;2024-02-21T10:37:53;10.40;;;7.40;;
81310;SDS011;70779;52.506;5.492;2024-02-21T10:40:25;13.32;;;5.90;;
81310;SDS011;70779;52.506;5.492;2024-02-21T10:42:54;9.75;;;5.78;;
81310;SDS011;70779;52.506;5.492;2024-02-21T10:45:28;10.23;;;6.05;;
81310;SDS011;70779;52.506;5.492;2024-02-21T10:48:01;12.75;;;6.70;;
81310;SDS011;70779;52.506;5.492;2024-02-21T10:50:41;9.27;;;6.68;;
81310;SDS011;70779;52.506;5.492;2024-02-21T10:53:20;11.30;;;6.18;;
81310;SDS011;70779;52.506;5.492;2024-02-21T10:56:06;11.90;;;6.35;;
81310;SDS011;70779;52.506;5.492;2024-02-21T10:58:36;11.23;;;6.60;;
81310;SDS011;70779;52.506;5.492;2024-02-21T11:01:04;7.40;;;4.78;;
81310;SDS011;70779;52.506;5.492;2024-02-21T11:03:31;9.43;;;5.20;;
81310;SDS011;70779;52.506;5.492;2024-02-21T11:05:58;8.52;;;4.88;;
81310;SDS011;70779;52.506;5.492;2024-02-21T11:08:25;10.90;;;5.63;;
81310;SDS011;70779;52.506;5.492;2024-02-21T11:10:56;8.40;;;5.63;;
81310;SDS011;70779;52.506;5.492;2024-02-21T11:13:37;8.35;;;4.85;;
81310;SDS011;70779;52.506;5.492;2024-02-21T11:16:10;7.65;;;4.57;;
81310;SDS011;70779;52.506;5.492;2024-02-21T11:18:37;12.77;;;5.25;;
81310;SDS011;70779;52.506;5.492;2024-02-21T11:21:04;6.70;;;3.72;;
81310;SDS011;70779;52.506;5.492;2024-02-21T11:23:30;7.68;;;4.20;;
81310;SDS011;70779;52.506;5.492;2024-02-21T11:26:07;8.10;;;4.05;;
81310;SDS011;70779;52.506;5.492;2024-02-21T11:28:33;8.07;;;4.22;;
81310;SDS011;70779;52.506;5.492;2024-02-21T11:31:08;6.45;;;4.20;;
81310;SDS011;70779;52.506;5.492;2024-02-21T11:33:41;8.88;;;4.50;;
81310;SDS011;70779;52.506;5.492;2024-02-21T11:36:09;7.50;;;4.35;;
81310;SDS011;70779;52.506;5.492;2024-02-21T11:38:35;6.63;;;4.13;;
81310;SDS011;70779;52.506;5.492;2024-02-21T11:41:01;7.25;;;4.30;;
81310;SDS011;70779;52.506;5.492;2024-02-21T11:43:28;6.40;;;3.90;;
81310;SDS011;70779;52.506;5.492;2024-02-21T11:46:00;6.18;;;4.15;;
81310;SDS011;70779;52.506;5.492;2024-02-21T11:48:28;7.15;;;3.90;;
81310;SDS011;70779;52.506;5.492;2024-02-21T11:50:54;6.00;;;4.10;;
81310;SDS011;70779;52.506;5.492;2024-02-21T11:53:21;6.65;;;3.58;;
81310;SDS011;70779;52.506;5.492;2024-02-21T11:55:47;7.72;;;5.05;;
81310;SDS011;70779;52.506;5.492;2024-02-21T11:58:15;6.43;;;3.60;;
81310;SDS011;70779;52.506;5.492;2024-02-21T12:00:41;4.97;;;3.78;;
81310;SDS011;70779;52.506;5.492;2024-02-21T12:03:07;6.20;;;3.42;;
81310;SDS011;70779;52.506;5.492;2024-02-21T12:05:34;6.68;;;3.08;;
81310;SDS011;70779;52.506;5.492;2024-02-21T12:08:01;8.45;;;3.80;;
81310;SDS011;70779;52.506;5.492;2024-02-21T12:10:27;4.85;;;3.40;;
81310;SDS011;70779;52.506;5.492;2024-02-21T12:12:53;5.90;;;3.60;;
81310;SDS011;70779;52.506;5.492;2024-02-21T12:15:23;4.60;;;3.28;;
81310;SDS011;70779;52.506;5.492;2024-02-21T12:17:49;6.03;;;3.53;;
81310;SDS011;70779;52.506;5.492;2024-02-21T12:20:17;7.28;;;3.83;;
81310;SDS011;70779;52.506;5.492;2024-02-21T12:22:43;5.93;;;3.90;;
81310;SDS011;70779;52.506;5.492;2024-02-21T12:27:45;7.05;;;3.80;;
81310;SDS011;70779;52.506;5.492;2024-02-21T12:30:12;7.15;;;3.83;;
81310;SDS011;70779;52.506;5.492;2024-02-21T12:32:38;5.53;;;3.90;;
81310;SDS011;70779;52.506;5.492;2024-02-21T12:35:04;5.43;;;3.63;;
81310;SDS011;70779;52.506;5.492;2024-02-21T12:37:30;4.88;;;3.80;;
81310;SDS011;70779;52.506;5.492;2024-02-21T12:39:57;4.55;;;4.05;;
81310;SDS011;70779;52.506;5.492;2024-02-21T12:42:23;5.20;;;3.80;;
81310;SDS011;70779;52.506;5.492;2024-02-21T12:44:49;6.88;;;3.47;;
81310;SDS011;70779;52.506;5.492;2024-02-21T12:47:15;5.93;;;3.83;;
81310;SDS011;70779;52.506;5.492;2024-02-21T12:49:41;4.32;;;3.35;;
81310;SDS011;70779;52.506;5.492;2024-02-21T12:52:07;5.97;;;4.60;;
81310;SDS011;70779;52.506;5.492;2024-02-21T12:54:34;5.90;;;3.58;;
81310;SDS011;70779;52.506;5.492;2024-02-21T12:57:00;6.65;;;3.95;;
81310;SDS011;70779;52.506;5.492;2024-02-21T12:59:31;6.07;;;3.35;;
81310;SDS011;70779;52.506;5.492;2024-02-21T13:01:57;4.97;;;4.05;;
81310;SDS011;70779;52.506;5.492;2024-02-21T13:04:23;4.22;;;3.17;;
81310;SDS011;70779;52.506;5.492;2024-02-21T13:06:49;3.88;;;2.92;;
81310;SDS011;70779;52.506;5.492;2024-02-21T13:09:15;6.88;;;3.42;;
81310;SDS011;70779;52.506;5.492;2024-02-21T13:11:42;9.77;;;3.80;;
81310;SDS011;70779;52.506;5.492;2024-02-21T13:14:10;5.57;;;3.85;;
81310;SDS011;70779;52.506;5.492;2024-02-21T13:16:36;5.30;;;3.38;;
81310;SDS011;70779;52.506;5.492;2024-02-21T13:19:05;6.38;;;3.70;;
81310;SDS011;70779;52.506;5.492;2024-02-21T13:21:32;8.68;;;3.95;;
81310;SDS011;70779;52.506;5.492;2024-02-21T13:23:58;5.30;;;2.90;;
81310;SDS011;70779;52.506;5.492;2024-02-21T13:26:24;5.10;;;3.63;;
81310;SDS011;70779;52.506;5.492;2024-02-21T13:28:50;5.93;;;3.83;;
81310;SDS011;70779;52.506;5.492;2024-02-21T13:31:16;6.25;;;3.75;;
81310;SDS011;70779;52.506;5.492;2024-02-21T13:33:42;5.28;;;3.67;;
81310;SDS011;70779;52.506;5.492;2024-02-21T13:36:10;5.38;;;3.80;;
81310;SDS011;70779;52.506;5.492;2024-02-21T13:38:36;6.65;;;3.42;;
81310;SDS011;70779;52.506;5.492;2024-02-21T13:41:06;6.10;;;3.60;;
81310;SDS011;70779;52.506;5.492;2024-02-21T13:43:33;4.28;;;2.90;;
81310;SDS011;70779;52.506;5.492;2024-02-21T13:46:00;6.15;;;3.35;;
81310;SDS011;70779;52.506;5.492;2024-02-21T13:48:28;5.28;;;3.70;;
81310;SDS011;70779;52.506;5.492;2024-02-21T13:50:55;5.20;;;3.60;;
81310;SDS011;70779;52.506;5.492;2024-02-21T13:53:21;5.60;;;3.00;;
81310;SDS011;70779;52.506;5.492;2024-02-21T13:55:48;5.03;;;2.88;;
81310;SDS011;70779;52.506;5.492;2024-02-21T13:58:15;4.78;;;3.08;;
81310;SDS011;70779;52.506;5.492;2024-02-21T14:00:42;6.20;;;3.80;;
81310;SDS011;70779;52.506;5.492;2024-02-21T14:03:09;4.70;;;2.90;;
81310;SDS011;70779;52.506;5.492;2024-02-21T14:05:35;3.88;;;2.58;;
81310;SDS011;70779;52.506;5.492;2024-02-21T14:08:01;4.85;;;2.97;;
81310;SDS011;70779;52.506;5.492;2024-02-21T14:10:27;6.90;;;2.88;;
81310;SDS011;70779;52.506;5.492;2024-02-21T14:12:53;6.85;;;2.95;;
81310;SDS011;70779;52.506;5.492;2024-02-21T14:15:20;7.05;;;3.20;;
81310;SDS011;70779;52.506;5.492;2024-02-21T14:17:46;5.22;;;2.75;;
81310;SDS011;70779;52.506;5.492;2024-02-21T14:20:12;6.50;;;3.28;;
81310;SDS011;70779;52.506;5.492;2024-02-21T14:25:23;6.50;;;3.17;;
81310;SDS011;70779;52.506;5.492;2024-02-21T14:27:50;4.78;;;3.03;;
81310;SDS011;70779;52.506;5.492;2024-02-21T14:30:16;3.92;;;2.90;;
81310;SDS011;70779;52.506;5.492;2024-02-21T14:32:43;6.82;;;3.65;;
81310;SDS011;70779;52.506;5.492;2024-02-21T14:35:10;13.07;;;6.95;;
81310;SDS011;70779;52.506;5.492;2024-02-21T14:37:36;19.77;;;10.32;;
81310;SDS011;70779;52.506;5.492;2024-02-21T14:40:02;24.08;;;9.80;;
81310;SDS011;70779;52.506;5.492;2024-02-21T14:42:29;26.58;;;11.15;;
81310;SDS011;70779;52.506;5.492;2024-02-21T14:44:55;25.25;;;11.75;;
81310;SDS011;70779;52.506;5.492;2024-02-21T14:47:30;21.48;;;10.77;;